Alcova, WY

10:25 AM MDT on October 01, 2014 (GMT -0600)
Rawlins Municipal | Change Station
CLOSE
Current Station
Airport
Location: Rawlins,
Elevation: 6814 ft
Nearby Weather Stations

Elev 6814 ft 41.81 °N, 107.20 °W | Updated 32 minutes ago

Clear
Clear
40 °F
Feels Like 33 °F
N
10
Wind Variable Wind from WSW

Today
High -- | Low -- °F
--% Chance of Precip.
Yesterday
High -- | Low -- °F
Precip. -- in
7:04 AM 6:48 PM
Waxing Crescent, 49% visible
Pressure 29.91 in
Visibility 10.0 miles
Clouds Clear
Windchill 33 °F
Dew Point 34 °F
Humidity 79%
Rainfall 0.00 in
Snow Depth 0 in , 1 in , 0 in
UV 3 out of 12
Pollen 2.80 out of 12
Air Quality Not available.
Flu Activity Not available.
METAR KRWL 011553Z AUTO 24009KT 10SM CLR 04/01 A2999 RMK AO2 SLP126 T00440011

More Conditions Fewer Conditions

Pressure 29.91 in
Visibility 10.0 miles
Clouds Clear
Windchill 33 °F
Dew Point 34 °F
Humidity 79%
Rainfall 0.00 in
Snow Depth 0 in , 1 in , 0 in
UV 3 out of 12
Pollen 2.80 out of 12
Air Quality Not available.
Flu Activity Not available.
METAR KRWL 011553Z AUTO 24009KT 10SM CLR 04/01 A2999 RMK AO2 SLP126 T00440011

More Conditions Fewer Conditions

10-Day Weather Forecast

Almanac

Astronomy

Oct. 01, 2014 Rise Set
Actual Time 7:04 AM MDT 6:48 PM MDT
Civil Twilight 6:36 AM MDT 7:16 PM MDT
Nautical Twilight 6:04 AM MDT 7:49 PM MDT
Astronomical Twilight 5:31 AM MDT 8:22 PM MDT
Moon 2:13 PM MDT No Moon Set
Length of Visible Light 12h 40m
Length of Day
11h 44m
Tomorrow will be 2m 50s shorter.
Waxing Crescent, 49% of the Moon is Illuminated
Today
Waxing Crescent
Oct 1
First Quarter
Oct 8
Full
Oct 15
Last Quarter
Oct 23
New

Today's Extremes

State Highs State Lows

Community

WunderPhotos

Upload Photos

1,757,980 photos uploaded!

WunderBlogs® & News

Nearby

Snow Depth

Station Depth Elevation
South Brush Creek 0 in 8440 ft
Gunsight Pass 1 in 9820 ft
Hams Fork 0 in 7840 ft
Reno Hill 0 in 8500 ft
Phillips Bench 0 in 8200 ft

Earthquake Activity

City Distance Mag. Time & Date
No recent earthquake activity has been reported nearby.
Minimum magnitude displayed is 2.5.

Coastal Water Temperatures

Place Temperature
No Stations Reporting

Nearby Weather Stations